sensor_id;sensor_type;location;lat;lon;timestamp;P1;durP1;ratioP1;P2;durP2;ratioP2
72557;SDS011;60583;50.094;8.748;2022-12-22T00:02:21;6.10;;;3.10;;
72557;SDS011;60583;50.094;8.748;2022-12-22T00:05:16;5.93;;;2.90;;
72557;SDS011;60583;50.094;8.748;2022-12-22T00:08:04;5.57;;;2.97;;
72557;SDS011;60583;50.094;8.748;2022-12-22T00:10:49;6.82;;;3.22;;
72557;SDS011;60583;50.094;8.748;2022-12-22T00:13:34;5.32;;;3.20;;
72557;SDS011;60583;50.094;8.748;2022-12-22T00:16:19;5.25;;;2.88;;
72557;SDS011;60583;50.094;8.748;2022-12-22T00:19:09;5.70;;;2.95;;
72557;SDS011;60583;50.094;8.748;2022-12-22T00:21:56;6.25;;;3.10;;
72557;SDS011;60583;50.094;8.748;2022-12-22T00:27:27;7.40;;;3.28;;
72557;SDS011;60583;50.094;8.748;2022-12-22T00:30:14;5.95;;;3.25;;
72557;SDS011;60583;50.094;8.748;2022-12-22T00:32:59;5.80;;;3.30;;
72557;SDS011;60583;50.094;8.748;2022-12-22T00:35:44;5.28;;;3.15;;
72557;SDS011;60583;50.094;8.748;2022-12-22T00:38:28;6.75;;;3.45;;
72557;SDS011;60583;50.094;8.748;2022-12-22T00:41:12;6.10;;;3.17;;
72557;SDS011;60583;50.094;8.748;2022-12-22T00:43:56;7.47;;;3.60;;
72557;SDS011;60583;50.094;8.748;2022-12-22T00:46:39;5.53;;;3.20;;
72557;SDS011;60583;50.094;8.748;2022-12-22T00:49:26;7.35;;;3.50;;
72557;SDS011;60583;50.094;8.748;2022-12-22T00:52:11;5.63;;;2.80;;
72557;SDS011;60583;50.094;8.748;2022-12-22T00:54:56;5.93;;;3.10;;
72557;SDS011;60583;50.094;8.748;2022-12-22T00:57:40;6.50;;;2.95;;
72557;SDS011;60583;50.094;8.748;2022-12-22T01:00:26;6.80;;;3.60;;
72557;SDS011;60583;50.094;8.748;2022-12-22T01:03:10;6.05;;;3.00;;
72557;SDS011;60583;50.094;8.748;2022-12-22T01:05:54;5.45;;;2.97;;
72557;SDS011;60583;50.094;8.748;2022-12-22T01:08:39;6.32;;;3.40;;
72557;SDS011;60583;50.094;8.748;2022-12-22T01:11:23;5.80;;;3.20;;
72557;SDS011;60583;50.094;8.748;2022-12-22T01:14:09;5.38;;;2.83;;
72557;SDS011;60583;50.094;8.748;2022-12-22T01:16:55;5.95;;;3.50;;
72557;SDS011;60583;50.094;8.748;2022-12-22T01:19:38;7.90;;;3.78;;
72557;SDS011;60583;50.094;8.748;2022-12-22T01:22:22;6.65;;;3.58;;
72557;SDS011;60583;50.094;8.748;2022-12-22T01:25:12;5.78;;;3.00;;
72557;SDS011;60583;50.094;8.748;2022-12-22T01:27:59;5.88;;;3.22;;
72557;SDS011;60583;50.094;8.748;2022-12-22T01:30:43;6.57;;;3.03;;
72557;SDS011;60583;50.094;8.748;2022-12-22T01:33:27;7.40;;;3.33;;
72557;SDS011;60583;50.094;8.748;2022-12-22T01:36:11;8.15;;;3.10;;
72557;SDS011;60583;50.094;8.748;2022-12-22T01:38:55;6.15;;;3.10;;
72557;SDS011;60583;50.094;8.748;2022-12-22T01:41:39;6.15;;;2.80;;
72557;SDS011;60583;50.094;8.748;2022-12-22T01:44:24;5.72;;;3.25;;
72557;SDS011;60583;50.094;8.748;2022-12-22T01:47:50;5.50;;;3.17;;
72557;SDS011;60583;50.094;8.748;2022-12-22T01:50:16;6.38;;;3.42;;
72557;SDS011;60583;50.094;8.748;2022-12-22T01:53:06;6.47;;;3.65;;
72557;SDS011;60583;50.094;8.748;2022-12-22T01:55:53;6.50;;;3.38;;
72557;SDS011;60583;50.094;8.748;2022-12-22T01:58:40;6.18;;;3.03;;
72557;SDS011;60583;50.094;8.748;2022-12-22T02:01:28;6.55;;;3.40;;
72557;SDS011;60583;50.094;8.748;2022-12-22T02:04:14;5.72;;;3.25;;
72557;SDS011;60583;50.094;8.748;2022-12-22T02:07:03;6.97;;;3.50;;
72557;SDS011;60583;50.094;8.748;2022-12-22T02:10:09;7.32;;;3.33;;
72557;SDS011;60583;50.094;8.748;2022-12-22T02:13:00;6.05;;;3.20;;
72557;SDS011;60583;50.094;8.748;2022-12-22T02:16:13;7.72;;;3.78;;
72557;SDS011;60583;50.094;8.748;2022-12-22T02:22:27;5.00;;;3.30;;
72557;SDS011;60583;50.094;8.748;2022-12-22T02:25:27;6.53;;;3.28;;
72557;SDS011;60583;50.094;8.748;2022-12-22T02:28:20;6.20;;;2.90;;
72557;SDS011;60583;50.094;8.748;2022-12-22T02:31:05;5.47;;;3.35;;
72557;SDS011;60583;50.094;8.748;2022-12-22T02:33:49;6.93;;;3.55;;
72557;SDS011;60583;50.094;8.748;2022-12-22T02:36:54;6.47;;;3.17;;
72557;SDS011;60583;50.094;8.748;2022-12-22T02:46:04;7.53;;;3.33;;
72557;SDS011;60583;50.094;8.748;2022-12-22T02:49:19;5.90;;;3.40;;
72557;SDS011;60583;50.094;8.748;2022-12-22T02:52:11;6.63;;;3.50;;
72557;SDS011;60583;50.094;8.748;2022-12-22T02:54:59;7.63;;;3.83;;
72557;SDS011;60583;50.094;8.748;2022-12-22T02:57:44;7.53;;;3.78;;
72557;SDS011;60583;50.094;8.748;2022-12-22T03:00:27;6.47;;;3.72;;
72557;SDS011;60583;50.094;8.748;2022-12-22T03:03:12;6.13;;;3.72;;
72557;SDS011;60583;50.094;8.748;2022-12-22T03:05:55;6.53;;;3.85;;
72557;SDS011;60583;50.094;8.748;2022-12-22T03:08:39;9.68;;;4.55;;
72557;SDS011;60583;50.094;8.748;2022-12-22T03:11:23;7.82;;;4.28;;
72557;SDS011;60583;50.094;8.748;2022-12-22T03:14:07;7.32;;;3.85;;
72557;SDS011;60583;50.094;8.748;2022-12-22T03:16:51;8.15;;;3.65;;
72557;SDS011;60583;50.094;8.748;2022-12-22T03:19:34;7.85;;;4.30;;
72557;SDS011;60583;50.094;8.748;2022-12-22T03:22:18;6.15;;;3.63;;
72557;SDS011;60583;50.094;8.748;2022-12-22T03:25:02;7.03;;;3.55;;
72557;SDS011;60583;50.094;8.748;2022-12-22T03:27:46;7.47;;;3.88;;
72557;SDS011;60583;50.094;8.748;2022-12-22T03:30:11;7.88;;;4.13;;
72557;SDS011;60583;50.094;8.748;2022-12-22T03:32:37;6.75;;;3.97;;
72557;SDS011;60583;50.094;8.748;2022-12-22T03:35:02;6.75;;;3.90;;
72557;SDS011;60583;50.094;8.748;2022-12-22T03:37:28;7.50;;;3.58;;
72557;SDS011;60583;50.094;8.748;2022-12-22T03:39:53;7.53;;;3.47;;
72557;SDS011;60583;50.094;8.748;2022-12-22T03:42:19;6.85;;;3.88;;
72557;SDS011;60583;50.094;8.748;2022-12-22T03:45:02;5.95;;;3.28;;
72557;SDS011;60583;50.094;8.748;2022-12-22T03:47:47;6.07;;;3.88;;
72557;SDS011;60583;50.094;8.748;2022-12-22T03:50:12;6.13;;;3.20;;
72557;SDS011;60583;50.094;8.748;2022-12-22T03:52:37;5.05;;;2.97;;
72557;SDS011;60583;50.094;8.748;2022-12-22T03:55:03;5.93;;;3.30;;
72557;SDS011;60583;50.094;8.748;2022-12-22T03:57:28;4.82;;;3.08;;
72557;SDS011;60583;50.094;8.748;2022-12-22T03:59:54;5.45;;;3.10;;
72557;SDS011;60583;50.094;8.748;2022-12-22T04:02:19;5.85;;;3.60;;
72557;SDS011;60583;50.094;8.748;2022-12-22T04:04:45;6.20;;;3.35;;
72557;SDS011;60583;50.094;8.748;2022-12-22T04:07:10;6.57;;;3.47;;
72557;SDS011;60583;50.094;8.748;2022-12-22T04:09:35;6.70;;;3.03;;
72557;SDS011;60583;50.094;8.748;2022-12-22T04:12:21;5.00;;;2.90;;
72557;SDS011;60583;50.094;8.748;2022-12-22T04:15:05;7.68;;;3.35;;
72557;SDS011;60583;50.094;8.748;2022-12-22T04:17:31;5.72;;;3.15;;
72557;SDS011;60583;50.094;8.748;2022-12-22T04:19:56;5.45;;;3.25;;
72557;SDS011;60583;50.094;8.748;2022-12-22T04:22:21;5.25;;;2.65;;
72557;SDS011;60583;50.094;8.748;2022-12-22T04:24:47;6.60;;;2.90;;
72557;SDS011;60583;50.094;8.748;2022-12-22T04:27:12;6.63;;;3.00;;
72557;SDS011;60583;50.094;8.748;2022-12-22T04:29:37;5.25;;;2.83;;
72557;SDS011;60583;50.094;8.748;2022-12-22T04:32:03;6.72;;;2.75;;
72557;SDS011;60583;50.094;8.748;2022-12-22T04:34:28;6.55;;;2.70;;
72557;SDS011;60583;50.094;8.748;2022-12-22T04:36:54;5.00;;;2.45;;
72557;SDS011;60583;50.094;8.748;2022-12-22T04:39:19;6.82;;;2.55;;
72557;SDS011;60583;50.094;8.748;2022-12-22T04:41:44;5.53;;;2.70;;
72557;SDS011;60583;50.094;8.748;2022-12-22T04:44:10;6.35;;;2.55;;
72557;SDS011;60583;50.094;8.748;2022-12-22T04:46:35;5.35;;;2.72;;
72557;SDS011;60583;50.094;8.748;2022-12-22T04:49:00;5.72;;;2.40;;
72557;SDS011;60583;50.094;8.748;2022-12-22T04:51:26;6.82;;;2.53;;
72557;SDS011;60583;50.094;8.748;2022-12-22T04:53:52;6.35;;;2.58;;
72557;SDS011;60583;50.094;8.748;2022-12-22T04:56:17;5.78;;;2.95;;
72557;SDS011;60583;50.094;8.748;2022-12-22T04:58:43;6.70;;;2.63;;
72557;SDS011;60583;50.094;8.748;2022-12-22T05:01:09;5.13;;;2.17;;
72557;SDS011;60583;50.094;8.748;2022-12-22T05:03:36;4.35;;;2.03;;
72557;SDS011;60583;50.094;8.748;2022-12-22T05:06:02;7.13;;;2.55;;
72557;SDS011;60583;50.094;8.748;2022-12-22T05:08:27;7.20;;;2.42;;
72557;SDS011;60583;50.094;8.748;2022-12-22T05:10:52;5.95;;;2.20;;
72557;SDS011;60583;50.094;8.748;2022-12-22T05:13:18;4.82;;;2.00;;
72557;SDS011;60583;50.094;8.748;2022-12-22T05:15:43;7.63;;;2.58;;
72557;SDS011;60583;50.094;8.748;2022-12-22T05:18:08;4.50;;;2.00;;
72557;SDS011;60583;50.094;8.748;2022-12-22T05:20:36;4.72;;;1.90;;
72557;SDS011;60583;50.094;8.748;2022-12-22T05:23:01;6.10;;;2.40;;
72557;SDS011;60583;50.094;8.748;2022-12-22T05:25:27;5.30;;;2.30;;
72557;SDS011;60583;50.094;8.748;2022-12-22T05:27:53;6.55;;;2.38;;
72557;SDS011;60583;50.094;8.748;2022-12-22T05:30:19;7.15;;;2.53;;
72557;SDS011;60583;50.094;8.748;2022-12-22T05:32:45;5.47;;;2.80;;
72557;SDS011;60583;50.094;8.748;2022-12-22T05:35:10;6.10;;;2.55;;
72557;SDS011;60583;50.094;8.748;2022-12-22T05:37:36;6.70;;;2.55;;
72557;SDS011;60583;50.094;8.748;2022-12-22T05:40:01;4.65;;;2.50;;
72557;SDS011;60583;50.094;8.748;2022-12-22T05:42:27;7.85;;;2.85;;
72557;SDS011;60583;50.094;8.748;2022-12-22T05:45:09;6.43;;;2.53;;
72557;SDS011;60583;50.094;8.748;2022-12-22T05:47:37;7.70;;;3.17;;
72557;SDS011;60583;50.094;8.748;2022-12-22T05:50:03;9.13;;;3.25;;
72557;SDS011;60583;50.094;8.748;2022-12-22T05:52:30;6.18;;;2.90;;
72557;SDS011;60583;50.094;8.748;2022-12-22T05:54:55;5.18;;;2.20;;
72557;SDS011;60583;50.094;8.748;2022-12-22T05:57:21;5.53;;;2.67;;
72557;SDS011;60583;50.094;8.748;2022-12-22T05:59:46;4.68;;;2.47;;
72557;SDS011;60583;50.094;8.748;2022-12-22T06:02:12;6.10;;;3.15;;
72557;SDS011;60583;50.094;8.748;2022-12-22T06:04:37;5.18;;;2.17;;
72557;SDS011;60583;50.094;8.748;2022-12-22T06:07:03;5.55;;;2.35;;
72557;SDS011;60583;50.094;8.748;2022-12-22T06:09:28;4.28;;;2.20;;
72557;SDS011;60583;50.094;8.748;2022-12-22T06:11:53;5.55;;;2.38;;
72557;SDS011;60583;50.094;8.748;2022-12-22T06:14:19;5.43;;;2.17;;
72557;SDS011;60583;50.094;8.748;2022-12-22T06:16:44;4.18;;;2.40;;
72557;SDS011;60583;50.094;8.748;2022-12-22T06:19:09;4.22;;;1.92;;
72557;SDS011;60583;50.094;8.748;2022-12-22T06:21:35;4.05;;;1.80;;
72557;SDS011;60583;50.094;8.748;2022-12-22T06:24:00;4.60;;;1.90;;
72557;SDS011;60583;50.094;8.748;2022-12-22T06:26:25;5.07;;;1.77;;
72557;SDS011;60583;50.094;8.748;2022-12-22T06:28:51;4.00;;;1.55;;
72557;SDS011;60583;50.094;8.748;2022-12-22T06:31:16;4.47;;;2.08;;
72557;SDS011;60583;50.094;8.748;2022-12-22T06:33:41;3.85;;;1.80;;
72557;SDS011;60583;50.094;8.748;2022-12-22T06:36:07;4.43;;;1.90;;
72557;SDS011;60583;50.094;8.748;2022-12-22T06:38:33;4.60;;;1.73;;
72557;SDS011;60583;50.094;8.748;2022-12-22T06:40:59;3.90;;;1.83;;
72557;SDS011;60583;50.094;8.748;2022-12-22T06:43:24;3.63;;;1.67;;
72557;SDS011;60583;50.094;8.748;2022-12-22T06:45:50;3.85;;;1.65;;
72557;SDS011;60583;50.094;8.748;2022-12-22T06:48:16;4.22;;;1.58;;
72557;SDS011;60583;50.094;8.748;2022-12-22T06:50:41;3.95;;;1.40;;
72557;SDS011;60583;50.094;8.748;2022-12-22T06:53:07;3.42;;;1.40;;
72557;SDS011;60583;50.094;8.748;2022-12-22T06:55:33;3.50;;;1.35;;
72557;SDS011;60583;50.094;8.748;2022-12-22T06:57:59;4.78;;;1.30;;
72557;SDS011;60583;50.094;8.748;2022-12-22T07:00:24;3.45;;;1.30;;
72557;SDS011;60583;50.094;8.748;2022-12-22T07:02:50;4.10;;;1.30;;
72557;SDS011;60583;50.094;8.748;2022-12-22T07:05:15;3.60;;;1.27;;
72557;SDS011;60583;50.094;8.748;2022-12-22T07:07:41;5.35;;;1.60;;
72557;SDS011;60583;50.094;8.748;2022-12-22T07:10:06;4.00;;;1.23;;
72557;SDS011;60583;50.094;8.748;2022-12-22T07:12:32;5.15;;;1.52;;
72557;SDS011;60583;50.094;8.748;2022-12-22T07:14:58;3.88;;;1.50;;
72557;SDS011;60583;50.094;8.748;2022-12-22T07:17:23;4.75;;;1.50;;
72557;SDS011;60583;50.094;8.748;2022-12-22T07:19:48;5.00;;;1.20;;
72557;SDS011;60583;50.094;8.748;2022-12-22T07:22:14;4.35;;;1.50;;
72557;SDS011;60583;50.094;8.748;2022-12-22T07:24:39;4.00;;;1.23;;
72557;SDS011;60583;50.094;8.748;2022-12-22T07:27:05;5.10;;;1.40;;
72557;SDS011;60583;50.094;8.748;2022-12-22T07:29:30;3.92;;;1.40;;
72557;SDS011;60583;50.094;8.748;2022-12-22T07:31:55;3.97;;;1.23;;
72557;SDS011;60583;50.094;8.748;2022-12-22T07:34:21;4.47;;;1.58;;
72557;SDS011;60583;50.094;8.748;2022-12-22T07:36:46;3.13;;;1.17;;
72557;SDS011;60583;50.094;8.748;2022-12-22T07:39:12;4.85;;;2.17;;
72557;SDS011;60583;50.094;8.748;2022-12-22T07:41:37;3.90;;;1.60;;
72557;SDS011;60583;50.094;8.748;2022-12-22T07:44:22;5.47;;;1.60;;
72557;SDS011;60583;50.094;8.748;2022-12-22T07:46:48;4.80;;;1.60;;
72557;SDS011;60583;50.094;8.748;2022-12-22T07:49:13;4.82;;;2.00;;
72557;SDS011;60583;50.094;8.748;2022-12-22T07:51:57;4.68;;;2.00;;
72557;SDS011;60583;50.094;8.748;2022-12-22T07:54:23;6.78;;;1.80;;
72557;SDS011;60583;50.094;8.748;2022-12-22T07:56:50;5.13;;;2.17;;
72557;SDS011;60583;50.094;8.748;2022-12-22T07:59:15;5.25;;;1.90;;
72557;SDS011;60583;50.094;8.748;2022-12-22T08:01:41;6.93;;;2.10;;
72557;SDS011;60583;50.094;8.748;2022-12-22T08:04:08;7.03;;;2.00;;
72557;SDS011;60583;50.094;8.748;2022-12-22T08:06:34;6.22;;;2.22;;
72557;SDS011;60583;50.094;8.748;2022-12-22T08:09:00;6.57;;;1.50;;
72557;SDS011;60583;50.094;8.748;2022-12-22T08:11:27;4.15;;;1.52;;
72557;SDS011;60583;50.094;8.748;2022-12-22T08:13:52;4.55;;;1.42;;
72557;SDS011;60583;50.094;8.748;2022-12-22T08:16:18;6.93;;;1.58;;
72557;SDS011;60583;50.094;8.748;2022-12-22T08:18:45;5.15;;;1.48;;
72557;SDS011;60583;50.094;8.748;2022-12-22T08:21:10;6.40;;;1.85;;
72557;SDS011;60583;50.094;8.748;2022-12-22T08:23:36;4.95;;;1.38;;
72557;SDS011;60583;50.094;8.748;2022-12-22T08:26:06;6.18;;;1.40;;
72557;SDS011;60583;50.094;8.748;2022-12-22T08:28:37;6.65;;;1.80;;
72557;SDS011;60583;50.094;8.748;2022-12-22T08:31:06;5.03;;;1.63;;
72557;SDS011;60583;50.094;8.748;2022-12-22T08:33:32;8.15;;;1.58;;
72557;SDS011;60583;50.094;8.748;2022-12-22T08:35:57;6.70;;;1.70;;
72557;SDS011;60583;50.094;8.748;2022-12-22T08:38:23;5.45;;;1.45;;
72557;SDS011;60583;50.094;8.748;2022-12-22T08:40:49;4.82;;;1.30;;
72557;SDS011;60583;50.094;8.748;2022-12-22T08:43:15;4.93;;;1.50;;
72557;SDS011;60583;50.094;8.748;2022-12-22T08:45:41;5.47;;;1.70;;
72557;SDS011;60583;50.094;8.748;2022-12-22T08:48:08;3.75;;;0.98;;
72557;SDS011;60583;50.094;8.748;2022-12-22T08:50:34;4.85;;;1.13;;
72557;SDS011;60583;50.094;8.748;2022-12-22T08:53:00;5.00;;;1.30;;
72557;SDS011;60583;50.094;8.748;2022-12-22T08:55:30;6.35;;;1.60;;
72557;SDS011;60583;50.094;8.748;2022-12-22T08:57:55;4.15;;;1.10;;
72557;SDS011;60583;50.094;8.748;2022-12-22T09:00:21;5.85;;;1.50;;
72557;SDS011;60583;50.094;8.748;2022-12-22T09:02:47;5.55;;;1.45;;
72557;SDS011;60583;50.094;8.748;2022-12-22T09:05:12;6.20;;;1.30;;
72557;SDS011;60583;50.094;8.748;2022-12-22T09:07:37;4.53;;;1.00;;
72557;SDS011;60583;50.094;8.748;2022-12-22T09:10:03;6.97;;;1.30;;
72557;SDS011;60583;50.094;8.748;2022-12-22T09:12:28;7.38;;;1.20;;
72557;SDS011;60583;50.094;8.748;2022-12-22T09:14:55;5.38;;;1.40;;
72557;SDS011;60583;50.094;8.748;2022-12-22T09:17:21;4.03;;;1.10;;
72557;SDS011;60583;50.094;8.748;2022-12-22T09:19:46;6.43;;;1.20;;
72557;SDS011;60583;50.094;8.748;2022-12-22T09:22:11;4.70;;;1.25;;
72557;SDS011;60583;50.094;8.748;2022-12-22T09:24:37;6.03;;;1.42;;
72557;SDS011;60583;50.094;8.748;2022-12-22T09:27:02;3.95;;;1.20;;
72557;SDS011;60583;50.094;8.748;2022-12-22T09:29:28;7.63;;;1.80;;
72557;SDS011;60583;50.094;8.748;2022-12-22T09:31:54;6.53;;;1.40;;
72557;SDS011;60583;50.094;8.748;2022-12-22T09:34:19;6.32;;;1.73;;
72557;SDS011;60583;50.094;8.748;2022-12-22T09:36:45;7.40;;;1.55;;
72557;SDS011;60583;50.094;8.748;2022-12-22T09:39:11;8.05;;;1.60;;
72557;SDS011;60583;50.094;8.748;2022-12-22T09:41:48;8.00;;;1.50;;
72557;SDS011;60583;50.094;8.748;2022-12-22T09:46:47;10.82;;;2.65;;
72557;SDS011;60583;50.094;8.748;2022-12-22T09:49:14;7.45;;;1.67;;
72557;SDS011;60583;50.094;8.748;2022-12-22T09:51:43;8.38;;;1.50;;
72557;SDS011;60583;50.094;8.748;2022-12-22T09:54:11;6.30;;;1.50;;
72557;SDS011;60583;50.094;8.748;2022-12-22T09:56:38;5.85;;;1.50;;
72557;SDS011;60583;50.094;8.748;2022-12-22T09:59:07;6.45;;;1.52;;
72557;SDS011;60583;50.094;8.748;2022-12-22T10:01:51;6.60;;;1.60;;
72557;SDS011;60583;50.094;8.748;2022-12-22T10:07:13;6.20;;;2.20;;
72557;SDS011;60583;50.094;8.748;2022-12-22T10:09:55;9.63;;;2.03;;
72557;SDS011;60583;50.094;8.748;2022-12-22T10:12:22;6.45;;;1.50;;
72557;SDS011;60583;50.094;8.748;2022-12-22T10:14:50;8.73;;;2.28;;
72557;SDS011;60583;50.094;8.748;2022-12-22T10:17:18;6.22;;;1.42;;
72557;SDS011;60583;50.094;8.748;2022-12-22T10:19:45;4.13;;;1.55;;
72557;SDS011;60583;50.094;8.748;2022-12-22T10:22:19;7.55;;;1.50;;
72557;SDS011;60583;50.094;8.748;2022-12-22T10:24:51;5.40;;;1.60;;
72557;SDS011;60583;50.094;8.748;2022-12-22T10:27:17;6.22;;;1.60;;
72557;SDS011;60583;50.094;8.748;2022-12-22T10:29:44;5.82;;;1.52;;
72557;SDS011;60583;50.094;8.748;2022-12-22T10:32:11;5.00;;;1.20;;
72557;SDS011;60583;50.094;8.748;2022-12-22T10:34:58;4.30;;;1.30;;
72557;SDS011;60583;50.094;8.748;2022-12-22T10:37:32;8.70;;;1.50;;
72557;SDS011;60583;50.094;8.748;2022-12-22T10:40:15;6.78;;;1.50;;
72557;SDS011;60583;50.094;8.748;2022-12-22T10:42:49;5.80;;;1.40;;
72557;SDS011;60583;50.094;8.748;2022-12-22T10:45:24;6.63;;;1.60;;
72557;SDS011;60583;50.094;8.748;2022-12-22T10:47:54;5.35;;;1.20;;
72557;SDS011;60583;50.094;8.748;2022-12-22T10:50:22;5.70;;;1.27;;
72557;SDS011;60583;50.094;8.748;2022-12-22T10:52:48;6.32;;;1.40;;
72557;SDS011;60583;50.094;8.748;2022-12-22T10:55:23;5.38;;;1.50;;
72557;SDS011;60583;50.094;8.748;2022-12-22T10:58:05;5.00;;;1.55;;
72557;SDS011;60583;50.094;8.748;2022-12-22T11:00:40;6.22;;;1.13;;
72557;SDS011;60583;50.094;8.748;2022-12-22T11:03:08;4.63;;;0.90;;
72557;SDS011;60583;50.094;8.748;2022-12-22T11:05:38;3.70;;;1.00;;
72557;SDS011;60583;50.094;8.748;2022-12-22T11:08:13;5.10;;;1.20;;
72557;SDS011;60583;50.094;8.748;2022-12-22T11:19:19;5.40;;;1.00;;
72557;SDS011;60583;50.094;8.748;2022-12-22T11:24:56;4.63;;;1.20;;
72557;SDS011;60583;50.094;8.748;2022-12-22T11:30:26;4.20;;;1.33;;
72557;SDS011;60583;50.094;8.748;2022-12-22T11:36:05;4.68;;;1.38;;
72557;SDS011;60583;50.094;8.748;2022-12-22T11:44:30;4.05;;;1.25;;
72557;SDS011;60583;50.094;8.748;2022-12-22T11:53:06;3.55;;;1.30;;
72557;SDS011;60583;50.094;8.748;2022-12-22T11:55:53;4.00;;;1.00;;
72557;SDS011;60583;50.094;8.748;2022-12-22T12:07:10;5.07;;;1.10;;
72557;SDS011;60583;50.094;8.748;2022-12-22T12:16:01;3.15;;;0.98;;
72557;SDS011;60583;50.094;8.748;2022-12-22T12:24:07;4.88;;;0.93;;
72557;SDS011;60583;50.094;8.748;2022-12-22T12:29:28;2.58;;;1.02;;
72557;SDS011;60583;50.094;8.748;2022-12-22T12:32:10;3.38;;;1.40;;
72557;SDS011;60583;50.094;8.748;2022-12-22T12:34:43;2.45;;;1.00;;
72557;SDS011;60583;50.094;8.748;2022-12-22T12:37:23;3.28;;;1.17;;
72557;SDS011;60583;50.094;8.748;2022-12-22T12:42:50;5.35;;;1.30;;
72557;SDS011;60583;50.094;8.748;2022-12-22T12:45:33;4.38;;;1.30;;
72557;SDS011;60583;50.094;8.748;2022-12-22T12:50:49;4.47;;;1.10;;
72557;SDS011;60583;50.094;8.748;2022-12-22T12:53:16;2.63;;;0.90;;
72557;SDS011;60583;50.094;8.748;2022-12-22T13:01:11;4.88;;;0.93;;
72557;SDS011;60583;50.094;8.748;2022-12-22T13:03:57;3.08;;;0.90;;
72557;SDS011;60583;50.094;8.748;2022-12-22T13:09:10;3.40;;;1.10;;
72557;SDS011;60583;50.094;8.748;2022-12-22T13:11:42;4.00;;;0.98;;
72557;SDS011;60583;50.094;8.748;2022-12-22T13:14:07;2.60;;;0.88;;
72557;SDS011;60583;50.094;8.748;2022-12-22T13:16:34;4.28;;;0.90;;
72557;SDS011;60583;50.094;8.748;2022-12-22T13:19:02;3.22;;;0.82;;
72557;SDS011;60583;50.094;8.748;2022-12-22T13:21:43;1.95;;;0.80;;
72557;SDS011;60583;50.094;8.748;2022-12-22T13:26:42;2.92;;;1.10;;
72557;SDS011;60583;50.094;8.748;2022-12-22T13:31:42;2.75;;;0.70;;
72557;SDS011;60583;50.094;8.748;2022-12-22T13:34:20;6.32;;;1.90;;
72557;SDS011;60583;50.094;8.748;2022-12-22T13:42:56;3.97;;;1.27;;
72557;SDS011;60583;50.094;8.748;2022-12-22T13:45:52;2.72;;;1.00;;
72557;SDS011;60583;50.094;8.748;2022-12-22T13:51:07;3.33;;;1.10;;
72557;SDS011;60583;50.094;8.748;2022-12-22T13:53:37;3.10;;;1.13;;
72557;SDS011;60583;50.094;8.748;2022-12-22T13:56:06;3.95;;;0.90;;
72557;SDS011;60583;50.094;8.748;2022-12-22T13:58:37;4.28;;;1.40;;
72557;SDS011;60583;50.094;8.748;2022-12-22T14:03:33;3.53;;;1.50;;
72557;SDS011;60583;50.094;8.748;2022-12-22T14:05:58;4.00;;;1.48;;
72557;SDS011;60583;50.094;8.748;2022-12-22T14:08:24;4.18;;;1.00;;
72557;SDS011;60583;50.094;8.748;2022-12-22T14:10:49;11.98;;;6.00;;
72557;SDS011;60583;50.094;8.748;2022-12-22T14:13:17;4.88;;;1.70;;
72557;SDS011;60583;50.094;8.748;2022-12-22T14:15:46;5.28;;;2.10;;
72557;SDS011;60583;50.094;8.748;2022-12-22T14:18:13;4.70;;;1.20;;
72557;SDS011;60583;50.094;8.748;2022-12-22T14:20:41;4.10;;;1.10;;
72557;SDS011;60583;50.094;8.748;2022-12-22T14:23:20;3.80;;;1.33;;
72557;SDS011;60583;50.094;8.748;2022-12-22T14:25:50;3.17;;;1.10;;
72557;SDS011;60583;50.094;8.748;2022-12-22T14:28:25;4.68;;;1.40;;
72557;SDS011;60583;50.094;8.748;2022-12-22T14:30:55;3.05;;;1.10;;
72557;SDS011;60583;50.094;8.748;2022-12-22T14:35:48;4.50;;;1.35;;
72557;SDS011;60583;50.094;8.748;2022-12-22T14:38:21;3.95;;;1.40;;
72557;SDS011;60583;50.094;8.748;2022-12-22T14:40:48;1.83;;;0.75;;
72557;SDS011;60583;50.094;8.748;2022-12-22T14:45:40;4.30;;;0.80;;
72557;SDS011;60583;50.094;8.748;2022-12-22T14:48:07;2.95;;;1.00;;
72557;SDS011;60583;50.094;8.748;2022-12-22T14:50:34;2.30;;;0.80;;
72557;SDS011;60583;50.094;8.748;2022-12-22T14:53:01;1.70;;;0.68;;
72557;SDS011;60583;50.094;8.748;2022-12-22T14:55:36;2.20;;;0.60;;
72557;SDS011;60583;50.094;8.748;2022-12-22T15:01:12;3.78;;;0.98;;
72557;SDS011;60583;50.094;8.748;2022-12-22T15:03:41;3.08;;;0.90;;
72557;SDS011;60583;50.094;8.748;2022-12-22T15:08:50;2.55;;;0.88;;
72557;SDS011;60583;50.094;8.748;2022-12-22T15:11:18;2.55;;;0.70;;
72557;SDS011;60583;50.094;8.748;2022-12-22T15:13:46;1.25;;;0.50;;
72557;SDS011;60583;50.094;8.748;2022-12-22T15:16:14;2.88;;;0.40;;
72557;SDS011;60583;50.094;8.748;2022-12-22T15:18:42;2.65;;;1.05;;
72557;SDS011;60583;50.094;8.748;2022-12-22T15:21:08;2.83;;;0.80;;
72557;SDS011;60583;50.094;8.748;2022-12-22T15:23:37;3.45;;;1.00;;
72557;SDS011;60583;50.094;8.748;2022-12-22T15:26:03;2.28;;;1.20;;
72557;SDS011;60583;50.094;8.748;2022-12-22T15:28:29;1.90;;;0.65;;
72557;SDS011;60583;50.094;8.748;2022-12-22T15:30:55;2.38;;;0.60;;
72557;SDS011;60583;50.094;8.748;2022-12-22T15:33:20;2.45;;;1.00;;
72557;SDS011;60583;50.094;8.748;2022-12-22T15:35:46;2.45;;;0.75;;
72557;SDS011;60583;50.094;8.748;2022-12-22T15:38:12;2.85;;;0.80;;
72557;SDS011;60583;50.094;8.748;2022-12-22T15:40:42;1.77;;;0.63;;
72557;SDS011;60583;50.094;8.748;2022-12-22T15:43:08;2.28;;;0.77;;
72557;SDS011;60583;50.094;8.748;2022-12-22T15:45:34;2.00;;;0.70;;
72557;SDS011;60583;50.094;8.748;2022-12-22T15:48:02;2.38;;;0.80;;
72557;SDS011;60583;50.094;8.748;2022-12-22T15:50:30;2.47;;;0.93;;
72557;SDS011;60583;50.094;8.748;2022-12-22T15:52:59;2.08;;;1.00;;
72557;SDS011;60583;50.094;8.748;2022-12-22T15:55:25;2.70;;;0.82;;
72557;SDS011;60583;50.094;8.748;2022-12-22T15:57:52;2.38;;;1.00;;
72557;SDS011;60583;50.094;8.748;2022-12-22T16:00:20;2.13;;;0.90;;
72557;SDS011;60583;50.094;8.748;2022-12-22T16:02:46;4.25;;;1.52;;
72557;SDS011;60583;50.094;8.748;2022-12-22T16:05:12;3.45;;;1.02;;
72557;SDS011;60583;50.094;8.748;2022-12-22T16:07:38;6.20;;;1.40;;
72557;SDS011;60583;50.094;8.748;2022-12-22T16:10:05;2.88;;;1.25;;
72557;SDS011;60583;50.094;8.748;2022-12-22T16:12:41;2.47;;;1.00;;
72557;SDS011;60583;50.094;8.748;2022-12-22T16:15:09;2.60;;;1.10;;
72557;SDS011;60583;50.094;8.748;2022-12-22T16:17:37;2.75;;;0.90;;
72557;SDS011;60583;50.094;8.748;2022-12-22T16:20:03;2.47;;;1.00;;
72557;SDS011;60583;50.094;8.748;2022-12-22T16:22:31;2.50;;;1.02;;
72557;SDS011;60583;50.094;8.748;2022-12-22T16:24:59;3.00;;;1.02;;
72557;SDS011;60583;50.094;8.748;2022-12-22T16:27:29;3.05;;;1.05;;
72557;SDS011;60583;50.094;8.748;2022-12-22T16:29:55;2.22;;;1.00;;
72557;SDS011;60583;50.094;8.748;2022-12-22T16:32:22;2.17;;;0.93;;
72557;SDS011;60583;50.094;8.748;2022-12-22T16:34:50;2.80;;;1.17;;
72557;SDS011;60583;50.094;8.748;2022-12-22T16:37:16;2.35;;;1.08;;
72557;SDS011;60583;50.094;8.748;2022-12-22T16:39:42;3.08;;;1.40;;
72557;SDS011;60583;50.094;8.748;2022-12-22T16:42:11;3.10;;;1.45;;
72557;SDS011;60583;50.094;8.748;2022-12-22T16:44:39;3.30;;;1.10;;
72557;SDS011;60583;50.094;8.748;2022-12-22T16:47:08;4.50;;;2.42;;
72557;SDS011;60583;50.094;8.748;2022-12-22T16:49:45;2.97;;;1.52;;
72557;SDS011;60583;50.094;8.748;2022-12-22T16:52:17;3.25;;;1.52;;
72557;SDS011;60583;50.094;8.748;2022-12-22T16:54:45;3.20;;;1.30;;
72557;SDS011;60583;50.094;8.748;2022-12-22T16:57:10;3.35;;;1.48;;
72557;SDS011;60583;50.094;8.748;2022-12-22T16:59:36;3.35;;;1.67;;
72557;SDS011;60583;50.094;8.748;2022-12-22T17:02:01;3.67;;;1.13;;
72557;SDS011;60583;50.094;8.748;2022-12-22T17:04:28;2.95;;;1.40;;
72557;SDS011;60583;50.094;8.748;2022-12-22T17:06:56;3.05;;;1.33;;
72557;SDS011;60583;50.094;8.748;2022-12-22T17:09:24;3.72;;;1.52;;